| time (UTC) | temp F | wind direction | speed knots | gust knots | rain 1hr in | rain 24hr in | rain mn in | humidity % | barometer mb |
| 20260507090732 | 63 | 180 | 3.5 | 0.0 | 0.00 | 0.00 | 0.00 | 98 | 1014.0 |
| 20260507085732 | 65 | 180 | 3.5 | 0.0 | 0.00 | 0.00 | 0.00 | 96 | 1014.0 |
| 20260507084731 | 65 | 185 | 6.1 | 8.7 | 0.00 | 0.00 | 0.00 | 97 | 1014.0 |
| 20260507083730 | 65 | 201 | 4.3 | 8.7 | 0.00 | 0.00 | 0.00 | 97 | 1014.0 |
| 20260507082730 | 64 | 153 | 4.3 | 8.7 | 0.00 | 0.00 | 0.00 | 96 | 1014.0 |
| 20260507081729 | 64 | 182 | 4.3 | 8.7 | 0.00 | 0.00 | 0.00 | 96 | 1014.0 |
| 20260507080729 | 64 | 180 | 4.3 | 0.0 | 0.00 | 0.00 | 0.00 | 95 | 1014.0 |
| 20260507075727 | 64 | 206 | 4.3 | 9.6 | 0.00 | 0.00 | 0.00 | 96 | 1014.0 |
| 20260507074726 | 63 | 180 | 4.3 | 0.0 | 0.00 | 0.00 | 0.00 | 96 | 1014.0 |
| 20260507073726 | 64 | 180 | 4.3 | 0.0 | 0.00 | 0.00 | 0.00 | 96 | 1014.0 |
| 20260507072725 | 66 | 180 | 5.2 | 0.0 | 0.00 | 0.00 | 0.00 | 93 | 1015.0 |
| 20260507071725 | 63 | 198 | 4.3 | 7.0 | 0.00 | 0.00 | 0.00 | 96 | 1015.0 |
| 20260507070720 | 64 | 208 | 4.3 | 7.0 | 0.00 | 0.00 | 0.00 | 96 | 1015.0 |
| 20260507065719 | 66 | 150 | 4.3 | 8.7 | 0.00 | 0.00 | 0.00 | 93 | 1015.0 |
| 20260507064719 | 63 | 188 | 3.5 | 9.6 | 0.00 | 0.00 | 0.00 | 96 | 1015.0 |
| 20260507063718 | 64 | 186 | 3.5 | 9.6 | 0.00 | 0.00 | 0.00 | 96 | 1015.0 |
| 20260507062717 | 66 | 161 | 4.3 | 8.7 | 0.00 | 0.00 | 0.00 | 93 | 1015.0 |
| 20260507061717 | 63 | 180 | 9.6 | 0.0 | 0.00 | 0.00 | 0.00 | 96 | 1015.0 |
| 20260507060716 | 64 | 180 | 9.6 | 0.0 | 0.00 | 0.00 | 0.00 | 95 | 1015.0 |
| 20260507055715 | 66 | 180 | 9.6 | 0.0 | 0.00 | 0.00 | 0.00 | 92 | 1015.0 |
| 20260507054715 | 67 | 180 | 9.6 | 0.0 | 0.00 | 0.00 | 0.00 | 93 | 1015.0 |
| 20260507053714 | 66 | 180 | 9.6 | 0.0 | 0.00 | 0.00 | 0.00 | 92 | 1015.0 |
| 20260507052713 | 66 | 180 | 9.6 | 0.0 | 0.00 | 0.00 | 0.00 | 92 | 1016.0 |
| 20260507051713 | 66 | 180 | 9.6 | 0.0 | 0.00 | 0.00 | 0.00 | 92 | 1016.0 |
| 20260507050712 | 66 | 180 | 9.6 | 0.0 | 0.00 | 0.00 | 0.00 | 92 | 1016.0 |
| 20260507045711 | 68 | 180 | 9.6 | 0.0 | 0.00 | 0.00 | 0.00 | 91 | 1016.0 |
| 20260507044711 | 65 | 180 | 9.6 | 0.0 | 0.00 | 0.00 | 0.00 | 95 | 1016.0 |
| 20260507043710 | 66 | 180 | 9.6 | 0.0 | 0.00 | 0.00 | 0.00 | 94 | 1016.0 |
| 20260507042709 | 68 | 180 | 9.6 | 0.0 | 0.00 | 0.00 | 0.00 | 91 | 1016.0 |
| 20260507041709 | 65 | 180 | 9.6 | 0.0 | 0.00 | 0.00 | 0.00 | 94 | 1015.0 |
| 20260507040708 | 66 | 180 | 9.6 | 0.0 | 0.00 | 0.00 | 0.00 | 93 | 1015.0 |
| 20260507035707 | 68 | 180 | 9.6 | 0.0 | 0.00 | 0.00 | 0.00 | 89 | 1015.0 |
| 20260507034706 | 68 | 180 | 9.6 | 0.0 | 0.00 | 0.00 | 0.00 | 91 | 1015.0 |
| 20260507033706 | 67 | 180 | 9.6 | 0.0 | 0.00 | 0.00 | 0.00 | 90 | 1015.0 |
| 20260507032705 | 67 | 180 | 9.6 | 0.0 | 0.00 | 0.00 | 0.00 | 90 | 1015.0 |
| 20260507031704 | 67 | 180 | 9.6 | 0.0 | 0.00 | 0.00 | 0.00 | 90 | 1015.0 |
| 20260507030704 | 68 | 180 | 9.6 | 0.0 | 0.00 | 0.00 | 0.00 | 92 | 1015.0 |
| 20260507025703 | 68 | 180 | 9.6 | 0.0 | 0.00 | 0.00 | 0.00 | 92 | 1015.0 |
| 20260507024702 | 68 | 180 | 9.6 | 0.0 | 0.00 | 0.00 | 0.00 | 93 | 1015.0 |
| 20260507023702 | 67 | 180 | 11.3 | 0.0 | 0.00 | 0.00 | 0.00 | 92 | 1015.0 |
| 20260507022701 | 67 | 180 | 11.3 | 0.0 | 0.00 | 0.00 | 0.00 | 92 | 1014.0 |
| 20260507021701 | 67 | 180 | 11.3 | 0.0 | 0.00 | 0.00 | 0.00 | 92 | 1014.0 |
| 20260507020700 | 68 | 180 | 11.3 | 0.0 | 0.00 | 0.00 | 0.00 | 92 | 1014.0 |
| 20260507015659 | 69 | 180 | 11.3 | 0.0 | 0.00 | 0.00 | 0.00 | 91 | 1014.0 |
| 20260507014659 | 66 | 180 | 11.3 | 0.0 | 0.00 | 0.00 | 0.00 | 95 | 1014.0 |
| 20260507013658 | 67 | 180 | 11.3 | 0.0 | 0.00 | 0.00 | 0.00 | 94 | 1014.0 |
| 20260507012658 | 69 | 180 | 11.3 | 0.0 | 0.00 | 0.00 | 0.00 | 91 | 1013.0 |
| 20260507011657 | 66 | 180 | 9.6 | 0.0 | 0.00 | 0.00 | 0.00 | 93 | 1012.0 |
| 20260507010656 | 68 | 180 | 9.6 | 0.0 | 0.00 | 0.00 | 0.00 | 92 | 1012.0 |
| 20260507005656 | 68 | 180 | 9.6 | 0.0 | 0.00 | 0.00 | 0.00 | 91 | 1012.0 |
| 20260507004655 | 68 | 180 | 9.6 | 0.0 | 0.00 | 0.00 | 0.00 | 91 | 1012.0 |
| 20260507003655 | 71 | 180 | 9.6 | 0.0 | 0.00 | 0.00 | 0.00 | 88 | 1012.0 |
| 20260507002654 | 70 | 180 | 9.6 | 0.0 | 0.00 | 0.00 | 0.00 | 85 | 1012.0 |
| 20260507001653 | 70 | 180 | 9.6 | 0.0 | 0.00 | 0.00 | 0.00 | 85 | 1012.0 |
| 20260507000653 | 71 | 180 | 9.6 | 0.0 | 0.00 | 0.00 | 0.00 | 85 | 1012.0 |
| 20260506235652 | 72 | 180 | 9.6 | 0.0 | 0.00 | 0.00 | 0.00 | 81 | 1012.0 |
| 20260506234651 | 73 | 180 | 9.6 | 0.0 | 0.00 | 0.00 | 0.00 | 73 | 1011.0 |
| 20260506233651 | 74 | 180 | 9.6 | 0.0 | 0.00 | 0.00 | 0.00 | 73 | 1011.0 |
| 20260506232650 | 75 | 180 | 9.6 | 0.0 | 0.00 | 0.00 | 0.00 | 73 | 1011.0 |
| 20260506231650 | 72 | 180 | 9.6 | 0.0 | 0.00 | 0.00 | 0.00 | 90 | 1011.0 |
| 20260506230649 | 72 | 180 | 9.6 | 0.0 | 0.00 | 0.00 | 0.00 | 90 | 1011.0 |
| 20260506225648 | 73 | 180 | 9.6 | 0.0 | 0.00 | 0.00 | 0.00 | 89 | 1011.0 |
| 20260506224648 | 78 | 180 | 9.6 | 0.0 | 0.00 | 0.00 | 0.00 | 79 | 1011.0 |
| 20260506223647 | 78 | 180 | 9.6 | 0.0 | 0.00 | 0.00 | 0.00 | 79 | 1011.0 |
| 20260506222647 | 77 | 200 | 13.0 | 0.0 | 0.00 | 0.00 | 0.00 | 78 | 1011.0 |
| 20260506221646 | 77 | 200 | 13.0 | 0.0 | 0.00 | 0.00 | 0.00 | 78 | 1011.0 |
| 20260506220645 | 78 | 200 | 13.0 | 0.0 | 0.00 | 0.00 | 0.00 | 77 | 1011.0 |
| 20260506215645 | 79 | 200 | 13.9 | 0.0 | 0.00 | 0.00 | 0.00 | 76 | 1011.0 |
| 20260506214644 | 80 | 200 | 13.9 | 0.0 | 0.00 | 0.00 | 0.00 | 77 | 1011.0 |
| 20260506213643 | 76 | 200 | 13.0 | 0.0 | 0.00 | 0.00 | 0.00 | 89 | 1011.0 |
| 20260506212643 | 80 | 200 | 13.9 | 0.0 | 0.00 | 0.00 | 0.00 | 76 | 1011.0 |
| 20260506211642 | 80 | 200 | 13.9 | 0.0 | 0.00 | 0.00 | 0.00 | 76 | 1011.0 |
| 20260506210031 | 78 | 153 | 7.0 | 13.0 | 0.00 | 0.00 | 0.00 | 10 | 1011.0 |
| 20260506205031 | 76 | 137 | 4.3 | 13.0 | 0.00 | 0.00 | 0.00 | 10 | 1011.0 |
| 20260506204030 | 76 | 110 | 4.3 | 12.2 | 0.00 | 0.00 | 0.00 | 10 | 1011.0 |
| 20260506203029 | 79 | 154 | 7.0 | 9.6 | 0.00 | 0.00 | 0.00 | 10 | 1011.0 |
| 20260506202019 | 79 | 140 | 4.3 | 12.2 | 0.00 | 0.00 | 0.00 | 10 | 1011.0 |
| 20260506201019 | 79 | 180 | 9.6 | 0.0 | 0.00 | 0.00 | 0.00 | 84 | 1011.0 |
| 20260506200018 | 79 | 180 | 9.6 | 0.0 | 0.00 | 0.00 | 0.00 | 84 | 1011.0 |
| 20260506195018 | 79 | 180 | 9.6 | 0.0 | 0.00 | 0.00 | 0.00 | 83 | 1012.0 |
| 20260506194017 | 79 | 180 | 9.6 | 0.0 | 0.00 | 0.00 | 0.00 | 83 | 1012.0 |
| 20260506193016 | 81 | 180 | 9.6 | 0.0 | 0.00 | 0.00 | 0.00 | 71 | 1012.0 |
| 20260506192016 | 82 | 180 | 9.6 | 0.0 | 0.00 | 0.00 | 0.00 | 72 | 1012.0 |
| 20260506191015 | 82 | 180 | 9.6 | 0.0 | 0.00 | 0.00 | 0.00 | 74 | 1012.0 |
| 20260506190015 | 79 | 132 | 7.0 | 11.3 | 0.00 | 0.00 | 0.00 | 10 | 1012.0 |
| 20260506185014 | 79 | 180 | 9.6 | 0.0 | 0.00 | 0.00 | 0.00 | 77 | 1012.0 |
| 20260506184013 | 82 | 180 | 9.6 | 0.0 | 0.00 | 0.00 | 0.00 | 64 | 1012.0 |
| 20260506183013 | 82 | 180 | 9.6 | 0.0 | 0.00 | 0.00 | 0.00 | 64 | 1012.0 |
| 20260506182012 | 84 | 180 | 9.6 | 0.0 | 0.00 | 0.00 | 0.00 | 48 | 1013.0 |
| 20260506181012 | 82 | 360 | 3.5 | 0.0 | 0.00 | 0.00 | 0.00 | 47 | 1013.0 |
| 20260506180011 | 82 | 360 | 3.5 | 0.0 | 0.00 | 0.00 | 0.00 | 47 | 1013.0 |
| 20260506175010 | 81 | 360 | 3.5 | 0.0 | 0.00 | 0.00 | 0.00 | 47 | 1013.0 |
| 20260506172923 | 82 | 360 | 3.5 | 0.0 | 0.00 | 0.00 | 0.00 | 47 | 1014.0 |
| 20260506171922 | 81 | 360 | 3.5 | 0.0 | 0.00 | 0.00 | 0.00 | 47 | 1014.0 |
| 20260506170922 | 82 | 360 | 3.5 | 0.0 | 0.00 | 0.00 | 0.00 | 47 | 1014.0 |
| 20260506165921 | 78 | 190 | 7.8 | 0.0 | 0.00 | 0.00 | 0.00 | 57 | 1014.0 |
| 20260506164920 | 78 | 190 | 7.8 | 0.0 | 0.00 | 0.00 | 0.00 | 57 | 1014.0 |
| 20260506163920 | 77 | 190 | 7.8 | 0.0 | 0.00 | 0.00 | 0.00 | 76 | 1014.0 |
| 20260506162919 | 77 | 190 | 7.8 | 0.0 | 0.00 | 0.00 | 0.00 | 76 | 1014.0 |
| 20260506162002 | 78 | 190 | 7.8 | 0.0 | 0.00 | 0.00 | 0.00 | 57 | 1014.0 |
| 20260506161001 | 78 | 190 | 7.8 | 0.0 | 0.00 | 0.00 | 0.00 | 57 | 1014.0 |
| 20260506160001 | 75 | 0 | 0.0 | 0.0 | 0.00 | 0.00 | 0.00 | 69 | 1014.0 |
| 20260506155000 | 75 | 0 | 0.0 | 0.0 | 0.00 | 0.00 | 0.00 | 69 | 1014.0 |
| 20260506153959 | 75 | 0 | 0.0 | 0.0 | 0.00 | 0.00 | 0.00 | 69 | 1014.0 |
| 20260506152959 | 74 | 260 | 2.6 | 6.1 | 0.00 | 0.00 | 0.00 | 83 | 1015.0 |
| 20260506151958 | 74 | 238 | 0.9 | 4.3 | 0.00 | 0.00 | 0.00 | 83 | 1015.0 |
| 20260506150957 | 74 | 262 | 0.9 | 4.3 | 0.00 | 0.00 | 0.00 | 74 | 1015.0 |
| 20260506145957 | 71 | 268 | 2.6 | 6.1 | 0.00 | 0.00 | 0.00 | 78 | 1015.0 |
| 20260506144956 | 71 | 271 | 0.9 | 3.5 | 0.00 | 0.00 | 0.00 | 78 | 1015.0 |
| 20260506143956 | 71 | 0 | 0.0 | 0.0 | 0.00 | 0.00 | 0.00 | 78 | 1015.0 |
| 20260506142955 | 71 | 279 | 0.9 | 4.3 | 0.00 | 0.00 | 0.00 | 82 | 1015.0 |
| 20260506141955 | 70 | 0 | 0.0 | 0.0 | 0.00 | 0.00 | 0.00 | 85 | 1015.0 |
| 20260506140954 | 71 | 0 | 0.0 | 0.0 | 0.00 | 0.00 | 0.00 | 78 | 1015.0 |
| 20260506135954 | 67 | 0 | 0.0 | 0.0 | 0.00 | 0.00 | 0.00 | 88 | 1015.0 |
| 20260506134953 | 67 | 0 | 0.0 | 0.0 | 0.00 | 0.00 | 0.00 | 88 | 1015.0 |
| 20260506133953 | 66 | 0 | 0.0 | 0.0 | 0.00 | 0.00 | 0.00 | 89 | 1015.0 |
| 20260506132952 | 67 | 61 | 0.9 | 3.5 | 0.00 | 0.00 | 0.00 | 92 | 1015.0 |
| 20260506131951 | 67 | 0 | 0.0 | 0.0 | 0.00 | 0.00 | 0.00 | 93 | 1015.0 |
| 20260506130951 | 67 | 0 | 0.0 | 0.0 | 0.00 | 0.00 | 0.00 | 93 | 1015.0 |
| 20260506125950 | 66 | 20 | 3.5 | 0.0 | 0.00 | 0.00 | 0.00 | 97 | 1015.0 |
| 20260506124950 | 65 | 20 | 3.5 | 0.0 | 0.00 | 0.00 | 0.00 | 97 | 1015.0 |
| 20260506123949 | 65 | 20 | 3.5 | 0.0 | 0.00 | 0.00 | 0.00 | 97 | 1015.0 |
| 20260506122949 | 64 | 20 | 4.3 | 0.0 | 0.00 | 0.00 | 0.00 | 96 | 1015.0 |
| 20260506121948 | 64 | 20 | 4.3 | 0.0 | 0.00 | 0.00 | 0.00 | 96 | 1015.0 |
| 20260506120947 | 64 | 20 | 4.3 | 0.0 | 0.00 | 0.00 | 0.00 | 95 | 1015.0 |
| 20260506115947 | 66 | 20 | 5.2 | 0.0 | 0.00 | 0.00 | 0.00 | 93 | 1015.0 |
| 20260506114946 | 61 | 20 | 4.3 | 0.0 | 0.00 | 0.00 | 0.00 | 97 | 1015.0 |
| 20260506113946 | 61 | 20 | 4.3 | 0.0 | 0.00 | 0.00 | 0.00 | 97 | 1015.0 |
| 20260506112945 | 63 | 20 | 4.3 | 0.0 | 0.00 | 0.00 | 0.00 | 96 | 1015.0 |
| 20260506111945 | 63 | 20 | 4.3 | 0.0 | 0.00 | 0.00 | 0.00 | 96 | 1015.0 |
| 20260506110944 | 66 | 20 | 5.2 | 0.0 | 0.00 | 0.00 | 0.00 | 93 | 1016.0 |
| 20260506105944 | 62 | 360 | 4.3 | 0.0 | 0.00 | 0.00 | 0.00 | 96 | 1016.0 |
| 20260506104943 | 62 | 360 | 4.3 | 0.0 | 0.00 | 0.00 | 0.00 | 96 | 1016.0 |
| 20260506103942 | 62 | 360 | 4.3 | 0.0 | 0.00 | 0.00 | 0.00 | 96 | 1016.0 |
| 20260506102942 | 63 | 360 | 4.3 | 0.0 | 0.00 | 0.00 | 0.00 | 96 | 1014.0 |
| 20260506101941 | 64 | 360 | 4.3 | 0.0 | 0.00 | 0.00 | 0.00 | 95 | 1014.0 |
| 20260506100941 | 66 | 360 | 5.2 | 0.0 | 0.00 | 0.00 | 0.00 | 92 | 1014.0 |
| 20260506095940 | 66 | 360 | 3.5 | 0.0 | 0.00 | 0.00 | 0.00 | 92 | 1014.0 |
| 20260506094940 | 66 | 360 | 3.5 | 0.0 | 0.00 | 0.00 | 0.00 | 92 | 1014.0 |
| 20260506093939 | 66 | 360 | 3.5 | 0.0 | 0.00 | 0.00 | 0.00 | 92 | 1014.0 |
| 20260506092938 | 66 | 360 | 3.5 | 0.0 | 0.00 | 0.00 | 0.00 | 92 | 1014.0 |
| 20260506091938 | 67 | 360 | 3.5 | 0.0 | 0.00 | 0.00 | 0.00 | 88 | 1014.0 |